Time;durP1;ratioP1;P1;durP2;ratioP2;P2;SDS_P1;SDS_P2;PMS_P1;PMS_P2;Temp;Humidity;BMP_temperature;BMP_pressure;BME280_temperature;BME280_humidity;BME280_pressure;Samples;Min_cycle;Max_cycle;Signal;HPM_P1;HPM_P2
2023/06/23 00:00:20;;;;;;;6.82;4.25;;;;;;;27.77;51.55;100761.81;5092726;28;20642;-55
2023/06/23 00:02:49;;;;;;;7.65;4.60;;;;;;;27.77;51.85;100768.09;5093207;28;20040;-56
2023/06/23 00:05:17;;;;;;;6.85;4.80;;;;;;;27.79;51.81;100779.66;5093105;28;20055;-56
2023/06/23 00:07:44;;;;;;;8.40;4.63;;;;;;;27.80;51.56;100784.03;5093356;28;20052;-56
2023/06/23 00:10:12;;;;;;;7.30;5.07;;;;;;;27.82;51.53;100800.16;5092976;28;20040;-56
2023/06/23 00:12:43;;;;;;;6.35;4.18;;;;;;;27.83;51.63;100810.00;5092902;28;20511;-52
2023/06/23 00:15:12;;;;;;;6.50;4.55;;;;;;;27.83;51.49;100816.31;5094861;28;20412;-50
2023/06/23 00:17:44;;;;;;;6.28;4.00;;;;;;;27.84;51.59;100819.88;5096509;28;20396;-55
2023/06/23 00:20:14;;;;;;;5.63;3.97;;;;;;;27.85;51.80;100822.41;5096566;28;20379;-53
2023/06/23 00:22:44;;;;;;;7.72;4.45;;;;;;;27.87;51.51;100818.63;5096419;28;20055;-54
2023/06/23 00:25:12;;;;;;;5.22;3.70;;;;;;;27.88;51.88;100820.34;5096545;28;20051;-53
2023/06/23 00:27:44;;;;;;;6.57;4.38;;;;;;;27.88;51.90;100817.63;5096525;28;20048;-54
2023/06/23 00:30:13;;;;;;;8.00;4.05;;;;;;;27.90;51.89;100821.00;5096046;28;20056;-53
2023/06/23 00:32:41;;;;;;;9.15;4.55;;;;;;;27.90;51.58;100823.72;5095250;28;20051;-55
2023/06/23 00:35:09;;;;;;;6.90;4.75;;;;;;;27.90;51.63;100816.38;5095008;28;20502;-56
2023/06/23 00:37:37;;;;;;;6.13;4.18;;;;;;;27.91;51.63;100818.06;5094816;28;20048;-56
2023/06/23 00:40:12;;;;;;;6.05;4.63;;;;;;;27.92;51.45;100808.06;5095833;28;20475;-56
2023/06/23 00:42:47;;;;;;;5.13;4.15;;;;;;;27.93;51.69;100813.28;5096094;28;20048;-51
2023/06/23 00:45:15;;;;;;;6.22;4.85;;;;;;;27.94;51.96;100823.13;5095901;28;20052;-53
2023/06/23 00:47:44;;;;;;;7.97;4.60;;;;;;;27.96;51.57;100825.69;5094982;28;20059;-53
2023/06/23 00:50:20;;;;;;;5.70;4.30;;;;;;;27.97;51.86;100824.66;5096007;28;20043;-51
2023/06/23 00:52:51;;;;;;;6.65;4.47;;;;;;;27.97;51.99;100827.38;5094652;28;20503;-56
2023/06/23 00:55:21;;;;;;;6.22;4.50;;;;;;;27.97;51.83;100836.38;5095819;28;20055;-56
2023/06/23 00:57:49;;;;;;;5.25;4.32;;;;;;;27.98;51.58;100840.78;5095961;28;20059;-55
2023/06/23 01:00:19;;;;;;;6.60;4.18;;;;;;;27.99;51.82;100849.78;5094164;28;20048;-56
2023/06/23 01:02:52;;;;;;;6.05;4.22;;;;;;;27.99;51.71;100853.34;5094148;28;20409;-55
2023/06/23 01:05:37;;;;;;;6.38;4.32;;;;;;;28.00;51.79;100875.97;5094334;28;20443;-55
2023/06/23 01:08:10;;;;;;;;;;;;;;;27.99;51.62;100871.56;5095899;28;20048;-56
2023/06/23 01:10:46;;;;;;;;;;;;;;;27.98;51.55;100873.44;5095759;28;20406;-55
2023/06/23 01:13:37;;;;;;;6.32;4.28;;;;;;;28.00;51.53;100884.16;5094138;28;19920;-55
2023/06/23 01:16:11;;;;;;;5.17;3.70;;;;;;;28.00;51.49;100882.25;5094602;28;20056;-54
2023/06/23 01:18:55;;;;;;;5.55;3.92;;;;;;;28.02;51.44;100884.78;5095506;28;20287;-53
2023/06/23 01:21:40;;;;;;;6.47;4.38;;;;;;;28.02;51.31;100882.91;5095435;28;20051;-52
2023/06/23 01:24:34;;;;;;;5.68;3.90;;;;;;;28.02;51.64;100877.47;5095189;28;20048;-53
2023/06/23 01:27:38;;;;;;;5.53;3.75;;;;;;;28.03;51.66;100875.59;5094422;28;20048;-53
2023/06/23 01:30:10;;;;;;;7.60;3.78;;;;;;;28.03;51.72;100868.25;5095100;28;20052;-51
2023/06/23 01:32:45;;;;;;;6.07;4.72;;;;;;;28.04;51.72;100882.75;5077269;28;20083;-56
2023/06/23 01:35:21;;;;;;;7.13;4.10;;;;;;;28.05;51.84;100885.25;5095136;28;20056;-55
2023/06/23 01:37:53;;;;;;;6.30;3.70;;;;;;;28.06;51.81;100884.22;5095231;28;20052;-56
2023/06/23 01:40:23;;;;;;;6.55;3.97;;;;;;;28.06;51.49;100886.94;5094987;28;20044;-56
2023/06/23 01:42:57;;;;;;;7.55;4.00;;;;;;;28.07;51.56;100874.16;5093785;28;20052;-56
2023/06/23 01:45:29;;;;;;;5.30;4.40;;;;;;;28.07;51.53;100872.28;5095110;28;20048;-56
2023/06/23 01:48:01;;;;;;;5.90;4.10;;;;;;;28.08;51.45;100878.59;5094738;28;20048;-55
2023/06/23 01:50:31;;;;;;;5.90;4.57;;;;;;;28.08;51.74;100875.88;5094779;28;20056;-55
2023/06/23 01:53:02;;;;;;;5.25;3.97;;;;;;;28.09;51.48;100875.69;5093200;28;20056;-56
2023/06/23 01:55:31;;;;;;;7.50;4.35;;;;;;;28.10;51.83;100869.19;5093439;28;20048;-56
2023/06/23 01:58:01;;;;;;;6.55;4.07;;;;;;;28.12;51.45;100860.03;5094566;28;20520;-56
2023/06/23 02:00:30;;;;;;;8.38;4.53;;;;;;;28.12;51.87;100855.41;5093258;28;20522;-56
2023/06/23 02:02:59;;;;;;;6.00;4.03;;;;;;;28.11;51.56;100853.72;5094287;28;20052;-53
2023/06/23 02:05:28;;;;;;;4.68;3.85;;;;;;;28.13;51.43;100861.69;5094374;28;20048;-52
2023/06/23 02:07:57;;;;;;;6.03;4.45;;;;;;;28.13;51.75;100851.66;5093142;28;20044;-54
2023/06/23 02:10:27;;;;;;;5.07;3.65;;;;;;;28.13;51.54;100848.09;5093381;28;20055;-51
2023/06/23 02:12:57;;;;;;;8.27;4.32;;;;;;;28.14;51.63;100850.63;5094449;28;20040;-56
2023/06/23 02:15:27;;;;;;;7.55;4.32;;;;;;;28.14;51.92;100845.16;5093088;28;20048;-56
2023/06/23 02:17:57;;;;;;;5.28;3.85;;;;;;;28.14;51.93;100850.63;5094450;28;20075;-55
2023/06/23 02:20:28;;;;;;;7.07;4.32;;;;;;;28.15;51.77;100844.13;5094432;28;20044;-55
2023/06/23 02:22:57;;;;;;;5.65;3.90;;;;;;;28.15;51.60;100829.69;5094275;28;20071;-53
2023/06/23 02:25:25;;;;;;;5.55;4.00;;;;;;;28.16;51.37;100825.94;5094196;28;20048;-54
2023/06/23 02:27:53;;;;;;;6.97;4.43;;;;;;;28.15;51.52;100821.50;5094190;28;20044;-54
2023/06/23 02:30:23;;;;;;;6.50;4.50;;;;;;;28.14;51.35;100820.69;5092679;28;20056;-54
2023/06/23 02:32:52;;;;;;;6.85;4.30;;;;;;;28.15;51.67;100822.34;5094369;28;20059;-56
2023/06/23 02:35:20;;;;;;;5.65;4.13;;;;;;;28.15;51.65;100819.63;5093977;28;20074;-56
2023/06/23 02:38:00;;;;;;;7.00;4.18;;;;;;;28.16;51.33;100829.50;5092246;28;20055;-55
2023/06/23 02:40:31;;;;;;;6.95;4.55;;;;;;;28.17;51.75;100830.34;5094010;28;20044;-56
2023/06/23 02:43:18;;;;;;;6.35;4.32;;;;;;;28.16;51.76;100834.94;5094332;28;20052;-55
2023/06/23 02:45:53;;;;;;;5.03;4.30;;;;;;;28.17;51.86;100836.63;5093897;28;20048;-51
2023/06/23 02:48:24;;;;;;;6.20;3.85;;;;;;;28.18;51.54;100834.75;5092597;28;20058;-52
2023/06/23 02:50:56;;;;;;;7.22;4.78;;;;;;;28.17;51.81;100828.47;5092544;28;20055;-55
2023/06/23 02:53:28;;;;;;;5.68;4.72;;;;;;;28.18;51.89;100819.25;5092476;28;20059;-55
2023/06/23 02:56:05;;;;;;;7.68;4.53;;;;;;;28.18;51.65;100816.53;5093777;28;20051;-56
2023/06/23 02:58:35;;;;;;;5.47;4.60;;;;;;;28.18;51.57;100827.44;5092015;28;20055;-56
2023/06/23 03:01:05;;;;;;;6.78;4.65;;;;;;;28.18;51.83;100832.88;5093834;28;20052;-56
2023/06/23 03:03:36;;;;;;;6.60;4.63;;;;;;;28.16;50.75;100829.50;5093501;28;20056;-56
2023/06/23 03:06:04;;;;;;;8.35;5.72;;;;;;;28.12;50.38;100830.94;5093214;28;20048;-56
2023/06/23 03:08:32;;;;;;;7.22;5.43;;;;;;;28.09;51.04;100834.84;5092427;28;20523;-58
2023/06/23 03:10:59;;;;;;;9.40;5.60;;;;;;;28.08;50.83;100830.47;5093416;28;20048;-56
2023/06/23 03:13:26;;;;;;;8.52;5.53;;;;;;;28.06;50.10;100827.06;5092201;28;20052;-56
2023/06/23 03:16:00;;;;;;;9.32;5.72;;;;;;;28.04;50.16;100807.38;5093646;28;20044;-56
2023/06/23 03:18:32;;;;;;;7.53;5.22;;;;;;;28.02;50.08;100805.88;5093543;28;20055;-55
2023/06/23 03:21:03;;;;;;;5.68;4.97;;;;;;;27.99;50.44;100820.69;5093630;28;20392;-57
2023/06/23 03:23:36;;;;;;;8.90;5.65;;;;;;;27.99;50.55;100814.41;5092850;28;20063;-56
2023/06/23 03:26:06;;;;;;;7.03;4.97;;;;;;;27.97;50.17;100811.88;5093457;28;20048;-56
2023/06/23 03:28:39;;;;;;;6.63;5.50;;;;;;;27.91;50.42;100809.06;5093211;28;20052;-56
2023/06/23 03:31:08;;;;;;;8.68;5.35;;;;;;;27.79;50.71;100805.97;5093376;28;20502;-58
2023/06/23 03:33:46;;;;;;;7.90;6.28;;;;;;;27.68;50.86;100817.31;5093260;28;20415;-57
2023/06/23 03:36:21;;;;;;;11.73;6.88;;;;;;;27.54;51.45;100813.53;5093432;28;20511;-57
2023/06/23 03:39:03;;;;;;;7.47;6.70;;;;;;;27.45;52.31;100817.38;5093423;28;20600;-56
2023/06/23 03:41:32;;;;;;;8.23;7.22;;;;;;;27.41;52.34;100827.78;5092141;28;20056;-57
2023/06/23 03:44:16;;;;;;;8.52;7.40;;;;;;;27.45;52.34;100850.84;5093255;28;20055;-56
2023/06/23 03:46:49;;;;;;;7.80;6.38;;;;;;;27.50;52.29;100853.84;5092917;28;20044;-56
2023/06/23 03:49:20;;;;;;;9.27;6.55;;;;;;;27.54;52.55;100843.44;5093613;28;20056;-56
2023/06/23 03:51:50;;;;;;;10.55;7.25;;;;;;;27.54;52.14;100833.41;5097081;28;20059;-56
2023/06/23 03:54:19;;;;;;;9.75;7.10;;;;;;;27.56;52.46;100836.81;5096994;28;20032;-56
2023/06/23 03:56:48;;;;;;;8.70;6.18;;;;;;;27.57;52.28;100833.06;5096956;28;20056;-56
2023/06/23 03:59:18;;;;;;;8.90;7.53;;;;;;;27.60;52.25;100837.28;5096994;28;20392;-56
2023/06/23 04:01:47;;;;;;;10.10;6.55;;;;;;;27.61;52.34;100838.97;5097105;28;20391;-56
2023/06/23 04:04:17;;;;;;;9.10;7.45;;;;;;;27.63;52.58;100858.69;5096819;28;20044;-56
2023/06/23 04:06:48;;;;;;;9.82;7.07;;;;;;;27.65;52.84;100851.16;5096435;28;20047;-57
2023/06/23 04:09:19;;;;;;;6.57;5.97;;;;;;;27.66;52.71;100841.97;5096638;28;20601;-56
2023/06/23 04:11:50;;;;;;;7.07;6.40;;;;;;;27.68;52.56;100834.47;5096724;28;20047;-56
2023/06/23 04:14:19;;;;;;;10.05;7.15;;;;;;;27.69;52.78;100846.19;5096732;28;20055;-56
2023/06/23 04:16:49;;;;;;;9.15;7.38;;;;;;;27.67;53.10;100842.81;5096234;28;20043;-57
2023/06/23 04:19:18;;;;;;;9.98;7.80;;;;;;;27.62;53.19;100846.09;5096237;28;20055;-56
2023/06/23 04:21:47;;;;;;;8.77;7.22;;;;;;;27.62;53.06;100843.38;5096147;28;20048;-56
2023/06/23 04:24:17;;;;;;;8.52;7.60;;;;;;;27.61;53.40;100845.25;5096033;28;20407;-56
2023/06/23 04:26:47;;;;;;;8.90;7.80;;;;;;;27.61;53.31;100836.25;5096279;28;20048;-56
2023/06/23 04:29:18;;;;;;;12.25;7.63;;;;;;;27.62;53.34;100837.94;5096302;28;20051;-56
2023/06/23 04:31:49;;;;;;;10.45;7.72;;;;;;;27.63;53.39;100838.78;5096652;28;20384;-56
2023/06/23 04:34:17;;;;;;;10.67;7.67;;;;;;;27.64;53.23;100844.03;5096155;28;20052;-56
2023/06/23 04:36:48;;;;;;;9.57;7.72;;;;;;;27.64;53.48;100844.03;5096021;28;20044;-56
2023/06/23 04:39:27;;;;;;;9.23;7.45;;;;;;;27.66;53.48;100843.84;5096314;28;20044;-55
2023/06/23 04:42:01;;;;;;;11.05;7.88;;;;;;;27.66;53.72;100841.13;5095165;28;20054;-57
2023/06/23 04:44:32;;;;;;;11.98;7.43;;;;;;;27.68;53.34;100841.78;5095086;28;20439;-57
2023/06/23 04:47:02;;;;;;;8.57;7.18;;;;;;;27.69;53.41;100838.88;5096152;28;20051;-56
2023/06/23 04:49:31;;;;;;;7.82;7.03;;;;;;;27.71;53.35;100833.25;5096078;28;20388;-56
2023/06/23 04:52:03;;;;;;;7.85;7.03;;;;;;;27.72;53.38;100833.06;5095913;28;20044;-57
2023/06/23 04:54:41;;;;;;;8.82;7.03;;;;;;;27.75;53.50;100831.88;5095904;28;20511;-57
2023/06/23 04:57:13;;;;;;;10.07;7.80;;;;;;;27.76;53.44;100830.84;5095970;28;20055;-57
2023/06/23 04:59:43;;;;;;;9.23;6.25;;;;;;;27.77;53.33;100836.09;5095951;28;20055;-57
2023/06/23 05:02:12;;;;;;;9.25;7.28;;;;;;;27.78;53.71;100840.50;5095861;28;20071;-57
2023/06/23 05:04:42;;;;;;;9.50;7.43;;;;;;;27.80;53.85;100841.16;5095647;28;20036;-57
2023/06/23 05:07:12;;;;;;;9.48;7.72;;;;;;;27.82;53.42;100839.09;5095757;28;20040;-57
2023/06/23 05:09:42;;;;;;;9.45;7.15;;;;;;;27.84;53.79;100844.38;5095545;28;20048;-57
2023/06/23 05:12:11;;;;;;;9.05;7.38;;;;;;;27.85;53.61;100838.72;5095420;28;20048;-56
2023/06/23 05:14:40;;;;;;;9.73;8.13;;;;;;;27.86;53.50;100842.28;5095482;28;20051;-56
2023/06/23 05:17:11;;;;;;;11.13;9.27;;;;;;;27.88;53.72;100850.28;5094358;28;20047;-57
2023/06/23 05:19:42;;;;;;;10.27;8.45;;;;;;;27.89;53.80;100850.06;5095512;28;20048;-56
2023/06/23 05:22:13;;;;;;;17.10;11.75;;;;;;;27.91;54.22;100860.75;5094428;28;20048;-57
2023/06/23 05:24:49;;;;;;;16.15;12.10;;;;;;;27.89;54.00;100863.69;5095475;28;20040;-57
2023/06/23 05:27:21;;;;;;;14.23;11.85;;;;;;;27.84;54.72;100864.25;5095331;28;20044;-57
2023/06/23 05:29:50;;;;;;;16.98;13.45;;;;;;;27.82;54.92;100863.56;5095014;28;20476;-56
2023/06/23 05:32:19;;;;;;;14.68;11.98;;;;;;;27.77;55.23;100855.13;5095231;28;20052;-57
2023/06/23 05:34:50;;;;;;;15.43;12.15;;;;;;;27.73;55.09;100874.72;5095015;28;20044;-56
2023/06/23 05:37:19;;;;;;;13.70;9.82;;;;;;;27.70;55.63;100867.75;5095202;28;20048;-56
2023/06/23 05:39:48;;;;;;;11.55;9.18;;;;;;;27.68;55.80;100875.28;5093781;28;20058;-56
2023/06/23 05:42:16;;;;;;;11.88;9.13;;;;;;;27.68;55.32;100871.72;5095302;28;20044;-57
2023/06/23 05:44:43;;;;;;;12.27;9.85;;;;;;;27.70;55.38;100883.25;5095015;28;20047;-57
2023/06/23 05:47:18;;;;;;;11.23;9.20;;;;;;;27.71;55.86;100882.19;5095149;28;20044;-56
2023/06/23 05:49:47;;;;;;;10.77;8.57;;;;;;;27.71;55.56;100883.06;5094688;28;20044;-56
2023/06/23 05:52:18;;;;;;;11.93;9.73;;;;;;;27.73;55.46;100885.59;5094770;28;20052;-56
2023/06/23 05:54:48;;;;;;;9.95;8.27;;;;;;;27.73;55.57;100885.59;5093608;28;20040;-56
2023/06/23 05:57:27;;;;;;;9.52;8.15;;;;;;;27.73;55.80;100891.03;5094587;28;20122;-57
2023/06/23 06:00:13;;;;;;;9.68;7.95;;;;;;;27.73;55.40;100889.19;5094396;28;20052;-56
2023/06/23 06:02:45;;;;;;;9.65;8.20;;;;;;;27.76;55.67;100891.53;5101500;28;20055;-56
2023/06/23 06:05:17;;;;;;;8.68;7.78;;;;;;;27.75;55.12;100895.31;5094494;28;20369;-56
2023/06/23 06:07:46;;;;;;;9.77;7.17;;;;;;;27.76;54.81;100913.31;5094627;28;20055;-56
2023/06/23 06:10:15;;;;;;;9.73;7.70;;;;;;;27.75;54.21;100906.19;5094003;28;20044;-56
2023/06/23 06:12:45;;;;;;;10.20;6.97;;;;;;;27.75;54.58;100916.19;5093796;28;20460;-56
2023/06/23 06:15:17;;;;;;;8.40;6.47;;;;;;;27.73;53.97;100908.22;5094326;28;20385;-56
2023/06/23 06:17:46;;;;;;;13.35;6.30;;;;;;;27.71;53.53;100910.28;5093955;28;20055;-56
2023/06/23 06:20:15;;;;;;;10.43;6.75;;;;;;;27.69;53.59;100915.03;5093969;28;20052;-56
2023/06/23 06:22:45;;;;;;;9.43;6.45;;;;;;;27.67;53.18;100925.28;5094184;28;20047;-56
2023/06/23 06:25:13;;;;;;;7.95;5.43;;;;;;;27.66;53.06;100917.28;5094087;28;20047;-55
2023/06/23 06:27:47;;;;;;;8.82;5.93;;;;;;;27.66;52.83;100922.72;5093956;28;20052;-56
2023/06/23 06:30:17;;;;;;;9.88;5.75;;;;;;;27.66;52.77;100923.56;5093978;28;20059;-56
2023/06/23 06:32:45;;;;;;;12.80;6.05;;;;;;;27.67;52.87;100927.13;5094290;28;20052;-57
2023/06/23 06:35:16;;;;;;;9.73;4.68;;;;;;;27.66;53.28;100926.28;5093958;28;20480;-57
2023/06/23 06:37:47;;;;;;;11.02;5.82;;;;;;;27.68;53.11;100921.50;5094032;28;20514;-58
2023/06/23 06:40:21;;;;;;;8.33;5.17;;;;;;;27.70;53.10;100929.47;5093931;28;20052;-58
2023/06/23 06:42:48;;;;;;;8.50;5.97;;;;;;;27.71;53.00;100932.03;5094022;28;20055;-57
2023/06/23 06:45:16;;;;;;;9.88;5.53;;;;;;;27.69;52.95;100931.34;5093953;28;20043;-58
2023/06/23 06:47:46;;;;;;;8.55;5.72;;;;;;;27.69;53.09;100927.78;5093730;28;20051;-58
2023/06/23 06:50:15;;;;;;;10.30;5.85;;;;;;;27.68;52.78;100932.41;5093910;28;20067;-57
2023/06/23 06:52:45;;;;;;;11.65;5.40;;;;;;;27.68;53.01;100926.94;5092859;28;20534;-57
2023/06/23 06:55:18;;;;;;;8.85;5.15;;;;;;;27.68;52.88;100929.69;5093675;28;20048;-57
2023/06/23 06:57:47;;;;;;;9.50;4.63;;;;;;;27.68;52.63;100920.69;5093668;28;20059;-58
2023/06/23 07:00:20;;;;;;;13.93;5.85;;;;;;;27.67;52.98;100925.28;5093669;28;20059;-58
2023/06/23 07:02:48;;;;;;;8.25;4.85;;;;;;;27.67;52.37;100924.41;5093486;28;20066;-57
2023/06/23 07:05:20;;;;;;;6.93;5.00;;;;;;;27.68;52.41;100932.41;5093575;28;20051;-58
2023/06/23 07:07:47;;;;;;;7.03;4.90;;;;;;;27.74;52.99;100925.38;5093643;28;20488;-57
2023/06/23 07:10:14;;;;;;;7.78;5.35;;;;;;;27.74;52.70;100926.22;5092541;28;20373;-57
2023/06/23 07:12:42;;;;;;;11.57;5.20;;;;;;;27.73;52.89;100930.00;5093683;28;20479;-58
2023/06/23 07:15:09;;;;;;;7.78;4.70;;;;;;;27.74;52.37;100923.50;5093391;28;20044;-58
2023/06/23 07:17:37;;;;;;;9.00;4.80;;;;;;;27.75;52.67;100929.78;5092827;28;20043;-59
2023/06/23 07:20:07;;;;;;;8.82;5.47;;;;;;;27.77;52.75;100923.16;5092895;28;20051;-59
2023/06/23 07:22:36;;;;;;;7.90;5.55;;;;;;;27.78;52.60;100921.28;5093553;28;20055;-60
2023/06/23 07:25:04;;;;;;;10.70;4.65;;;;;;;27.78;52.51;100924.00;5094725;28;20047;-60
2023/06/23 07:27:31;;;;;;;9.70;4.82;;;;;;;27.79;52.21;100922.94;5096098;28;20047;-59
2023/06/23 07:29:59;;;;;;;6.00;4.60;;;;;;;27.79;52.61;100925.66;5097021;28;20054;-60
2023/06/23 07:32:27;;;;;;;9.68;5.30;;;;;;;27.82;52.65;100922.59;5097480;28;20044;-58
2023/06/23 07:34:54;;;;;;;8.93;4.85;;;;;;;27.84;52.58;100924.09;5097060;28;20051;-58
2023/06/23 07:37:22;;;;;;;7.47;4.88;;;;;;;27.88;52.84;100927.31;5096942;28;20866;-58
2023/06/23 07:39:49;;;;;;;6.32;4.63;;;;;;;27.90;52.90;100922.50;5096919;28;20399;-58
2023/06/23 07:42:17;;;;;;;8.70;5.28;;;;;;;27.93;52.68;100913.13;5096760;28;20048;-58
2023/06/23 07:44:44;;;;;;;8.88;5.43;;;;;;;27.95;52.83;100911.06;5096033;28;20043;-58
2023/06/23 07:47:12;;;;;;;7.28;5.10;;;;;;;27.99;52.91;100910.47;5081898;28;20048;-58
2023/06/23 07:49:41;;;;;;;9.20;4.90;;;;;;;28.01;52.64;100913.03;5076261;28;20393;-58
2023/06/23 07:52:09;;;;;;;10.95;5.28;;;;;;;28.01;52.26;100913.03;5076290;28;20055;-60
2023/06/23 07:54:39;;;;;;;7.43;4.25;;;;;;;28.02;52.15;100906.56;5076104;28;20052;-59
2023/06/23 07:57:08;;;;;;;7.10;5.00;;;;;;;28.04;52.06;100909.94;5076160;28;20045;-60
2023/06/23 07:59:35;;;;;;;10.00;4.80;;;;;;;28.05;52.19;100907.03;5076411;28;20045;-60
2023/06/23 08:02:03;;;;;;;10.82;4.97;;;;;;;28.05;52.17;100901.59;5076289;28;20048;-58
2023/06/23 08:04:31;;;;;;;8.98;5.90;;;;;;;28.06;51.91;100896.97;5076410;28;20048;-58
2023/06/23 08:06:59;;;;;;;9.20;4.50;;;;;;;28.06;51.76;100896.97;5075875;28;20051;-58
2023/06/23 08:09:26;;;;;;;9.07;5.22;;;;;;;28.05;51.95;100893.44;5075985;28;20480;-58
2023/06/23 08:11:54;;;;;;;8.60;5.00;;;;;;;28.07;52.30;100896.78;5075623;28;20072;-59
2023/06/23 08:14:21;;;;;;;8.85;5.13;;;;;;;28.06;52.09;100896.97;5075536;28;20426;-59
2023/06/23 08:16:48;;;;;;;6.50;5.07;;;;;;;28.07;51.65;100890.50;5075454;28;20056;-60
2023/06/23 08:19:21;;;;;;;10.10;5.30;;;;;;;28.06;51.97;100891.53;5076258;28;20040;-60
2023/06/23 08:21:49;;;;;;;7.80;4.55;;;;;;;28.05;51.87;100887.97;5076072;28;20376;-58
2023/06/23 08:24:17;;;;;;;8.13;4.72;;;;;;;28.06;51.61;100883.38;5075891;28;20044;-58
2023/06/23 08:26:45;;;;;;;10.05;5.05;;;;;;;28.08;52.14;100886.78;5075930;28;20047;-58
2023/06/23 08:29:12;;;;;;;10.88;5.22;;;;;;;28.09;52.05;100892.00;5075482;28;20048;-54
2023/06/23 08:31:40;;;;;;;8.52;5.43;;;;;;;28.10;51.83;100904.59;5074784;28;20404;-57
2023/06/23 08:34:07;;;;;;;8.02;5.20;;;;;;;28.10;51.84;100896.41;5074502;28;20067;-55
2023/06/23 08:36:34;;;;;;;7.75;4.75;;;;;;;28.12;51.76;100898.13;5074237;28;20041;-57
2023/06/23 08:39:02;;;;;;;7.97;4.82;;;;;;;28.14;52.22;100894.16;5074482;28;20048;-58
2023/06/23 08:41:32;;;;;;;8.10;4.68;;;;;;;28.16;52.30;100894.00;5074623;28;20526;-57
2023/06/23 08:44:03;;;;;;;9.32;5.68;;;;;;;28.18;52.15;100891.91;5074411;28;20047;-57
2023/06/23 08:46:33;;;;;;;7.03;5.18;;;;;;;28.19;52.01;100890.88;5074527;28;20037;-57
2023/06/23 08:49:15;;;;;;;11.05;4.78;;;;;;;28.20;51.97;100887.97;5074364;28;20044;-57
2023/06/23 08:51:43;;;;;;;9.13;5.47;;;;;;;28.22;52.12;100882.34;5074556;28;20051;-54
2023/06/23 08:54:10;;;;;;;8.48;5.72;;;;;;;28.23;52.20;100893.03;5077625;28;20044;-55
2023/06/23 08:56:38;;;;;;;8.30;5.13;;;;;;;28.23;52.48;100887.56;5093955;28;20047;-53
2023/06/23 08:59:05;;;;;;;7.60;5.40;;;;;;;28.24;52.54;100889.28;5094154;28;20071;-53
2023/06/23 09:01:33;;;;;;;7.95;4.93;;;;;;;28.25;52.32;100888.25;5094167;28;20043;-51
2023/06/23 09:04:01;;;;;;;8.50;4.47;;;;;;;28.27;52.32;100888.03;5093897;28;20380;-54
2023/06/23 09:06:29;;;;;;;8.05;5.25;;;;;;;28.27;52.34;100882.59;5094007;28;20047;-56
2023/06/23 09:08:58;;;;;;;9.02;4.82;;;;;;;28.28;52.27;100885.16;5093994;28;20078;-54
2023/06/23 09:11:27;;;;;;;8.98;5.88;;;;;;;28.29;52.55;100877.81;5094093;28;20039;-57
2023/06/23 09:13:57;;;;;;;7.45;4.43;;;;;;;28.29;52.62;100880.56;5094107;28;20055;-58
2023/06/23 09:16:26;;;;;;;9.15;5.35;;;;;;;28.29;52.21;100872.38;5093982;28;20044;-58
2023/06/23 09:18:53;;;;;;;9.25;4.85;;;;;;;28.29;52.11;100875.94;5094058;28;20472;-57
2023/06/23 09:21:22;;;;;;;8.98;5.72;;;;;;;28.31;52.37;100870.28;5093951;28;20048;-53
2023/06/23 09:24:06;;;;;;;9.30;5.15;;;;;;;28.31;52.25;100864.84;5094053;28;20484;-52
2023/06/23 09:26:53;;;;;;;9.93;5.07;;;;;;;28.32;52.62;100861.13;5094081;28;20048;-53
2023/06/23 09:29:28;;;;;;;7.07;4.80;;;;;;;28.33;52.79;100873.69;5053551;28;1149176;-51
2023/06/23 09:31:57;;;;;;;8.15;4.03;;;;;;;28.35;52.27;100863.44;5094751;28;20048;-53
2023/06/23 09:34:30;;;;;;;8.38;5.03;;;;;;;28.35;52.53;100864.28;5094527;28;20052;-55
2023/06/23 09:37:09;;;;;;;10.23;5.93;;;;;;;28.37;52.22;100866.84;5094696;28;20044;-53
2023/06/23 09:39:39;;;;;;;9.25;5.60;;;;;;;28.37;52.36;100855.97;5094946;28;20052;-51
2023/06/23 09:42:10;;;;;;;9.52;5.05;;;;;;;28.40;51.92;100854.72;5094732;28;20509;-58
2023/06/23 09:44:45;;;;;;;9.40;5.68;;;;;;;28.40;51.38;100849.28;5094611;28;20079;-58
2023/06/23 09:47:18;;;;;;;10.43;5.18;;;;;;;28.40;51.29;100850.16;5093514;28;20510;-58
2023/06/23 09:49:48;;;;;;;9.20;5.40;;;;;;;28.41;51.24;100843.66;5094506;28;20054;-58
2023/06/23 09:52:24;;;;;;;9.82;5.20;;;;;;;28.41;50.59;100840.94;5094665;28;20052;-53
2023/06/23 09:54:52;;;;;;;9.85;5.15;;;;;;;28.43;50.69;100841.56;5094086;28;20040;-53
2023/06/23 09:57:19;;;;;;;10.27;5.00;;;;;;;28.44;50.15;100840.56;5094267;28;20051;-53
2023/06/23 09:59:51;;;;;;;8.63;4.85;;;;;;;28.44;50.23;100836.97;5094193;28;20126;-54
2023/06/23 10:02:21;;;;;;;9.95;4.90;;;;;;;28.43;50.16;100836.13;5094272;28;20059;-57
2023/06/23 10:04:50;;;;;;;8.75;4.63;;;;;;;28.43;50.41;100838.84;5093988;28;20048;-58
2023/06/23 10:07:22;;;;;;;9.38;4.78;;;;;;;28.45;50.66;100839.50;5094036;28;20067;-58
2023/06/23 10:09:54;;;;;;;8.10;4.82;;;;;;;28.46;50.46;100835.75;5093658;28;20047;-56
2023/06/23 10:12:42;;;;;;;10.55;5.70;;;;;;;28.46;50.91;100835.75;5093717;28;20044;-57
2023/06/23 10:15:10;;;;;;;10.25;4.63;;;;;;;28.47;50.71;100833.88;5093384;28;20051;-57
2023/06/23 10:17:38;;;;;;;8.40;4.70;;;;;;;28.48;50.45;100838.25;5093389;28;20071;-57
2023/06/23 10:20:06;;;;;;;6.85;4.07;;;;;;;28.49;50.89;100834.53;5093541;28;20483;-57
2023/06/23 10:22:36;;;;;;;10.40;5.00;;;;;;;28.49;50.37;100835.38;5094081;28;20044;-56
2023/06/23 10:25:09;;;;;;;7.50;4.95;;;;;;;28.50;50.78;100836.22;5093946;28;20056;-57
2023/06/23 10:27:40;;;;;;;8.70;5.13;;;;;;;28.52;50.24;100836.84;5094116;28;20384;-57
2023/06/23 10:30:10;;;;;;;8.95;5.03;;;;;;;28.52;50.04;100831.41;5093679;28;20056;-57
2023/06/23 10:32:42;;;;;;;9.82;5.35;;;;;;;28.53;49.74;100830.38;5093635;28;20052;-56
2023/06/23 10:35:11;;;;;;;14.10;5.30;;;;;;;28.55;49.81;100834.59;5093652;28;20407;-57
2023/06/23 10:37:43;;;;;;;11.05;5.25;;;;;;;28.56;49.93;100836.28;5092127;28;20047;-57
2023/06/23 10:40:16;;;;;;;10.88;5.38;;;;;;;28.59;49.55;100829.59;5093371;28;20052;-57
2023/06/23 10:42:47;;;;;;;8.57;4.65;;;;;;;28.59;49.83;100826.88;5081749;28;20036;-57
2023/06/23 10:45:15;;;;;;;7.67;5.17;;;;;;;28.60;49.92;100828.56;5073143;28;20063;-57
2023/06/23 10:47:44;;;;;;;8.13;5.00;;;;;;;28.62;49.84;100828.38;5073058;28;20055;-57
2023/06/23 10:50:13;;;;;;;9.55;5.53;;;;;;;28.63;49.78;100827.34;5073312;28;20040;-57
2023/06/23 10:52:42;;;;;;;8.23;5.07;;;;;;;28.65;49.83;100823.41;5072667;28;20044;-52
2023/06/23 10:55:53;;;;;;;13.13;5.68;;;;;;;28.68;49.43;100831.16;5080377;28;20051;-53
2023/06/23 10:58:25;;;;;;;8.32;5.47;;;;;;;28.68;49.19;100828.44;5050595;28;20045;-56
2023/06/23 11:00:52;;;;;;;8.63;6.28;;;;;;;28.69;50.07;100829.31;5050838;28;20056;-57
2023/06/23 11:03:36;;;;;;;7.53;5.25;;;;;;;28.68;51.68;100816.69;5050776;28;20069;-56
2023/06/23 11:06:05;;;;;;;8.00;5.10;;;;;;;28.66;52.38;100813.34;5049510;28;20460;-56
2023/06/23 11:08:35;;;;;;;8.18;4.93;;;;;;;28.62;53.20;100815.59;5050608;28;20441;-58
2023/06/23 11:11:05;;;;;;;10.30;5.45;;;;;;;28.58;53.25;100817.88;5050888;28;20437;-56
2023/06/23 11:13:45;;;;;;;8.82;4.70;;;;;;;28.56;53.58;100814.50;5050564;28;20052;-56
2023/06/23 11:16:14;;;;;;;11.05;5.88;;;;;;;28.55;53.28;100820.97;5050778;28;20517;-56
2023/06/23 11:18:51;;;;;;;8.50;5.70;;;;;;;28.56;52.93;100832.69;5050812;28;20049;-56
2023/06/23 11:21:30;;;;;;;7.00;5.32;;;;;;;28.56;54.40;100832.69;5050336;28;20049;-56
2023/06/23 11:24:10;;;;;;;8.13;5.15;;;;;;;28.55;54.30;100822.84;5033475;28;20049;-56
2023/06/23 11:26:42;;;;;;;7.25;5.10;;;;;;;28.52;54.86;100815.06;5050771;28;20060;-57
2023/06/23 11:29:12;;;;;;;11.75;6.43;;;;;;;28.50;54.70;100818.00;5061596;28;20398;-57
2023/06/23 11:32:06;;;;;;;6.47;5.15;;;;;;;28.48;54.80;100822.81;5073174;28;20049;-57
2023/06/23 11:34:54;;;;;;;8.63;5.63;;;;;;;28.48;54.25;100813.75;5072897;28;20040;-56
2023/06/23 11:37:26;;;;;;;8.90;6.20;;;;;;;28.48;54.53;100820.06;5072230;28;20044;-57
2023/06/23 11:39:54;;;;;;;9.88;5.20;;;;;;;28.46;55.09;100805.78;5072386;28;20380;-57
2023/06/23 11:42:24;;;;;;;7.38;5.07;;;;;;;28.46;55.34;100808.50;5072389;28;20055;-56